sensor_id;sensor_type;location;lat;lon;timestamp;temperature;humidity
11132;DHT22;5620;53.570;9.718;2023-04-24T00:00:38;13.20;99.90
11132;DHT22;5620;53.570;9.718;2023-04-24T00:03:04;13.20;99.90
11132;DHT22;5620;53.570;9.718;2023-04-24T00:05:30;13.20;99.90
11132;DHT22;5620;53.570;9.718;2023-04-24T00:07:56;13.20;99.90
11132;DHT22;5620;53.570;9.718;2023-04-24T00:10:22;13.20;99.90
11132;DHT22;5620;53.570;9.718;2023-04-24T00:12:50;13.20;99.90
11132;DHT22;5620;53.570;9.718;2023-04-24T00:15:18;13.20;99.90
11132;DHT22;5620;53.570;9.718;2023-04-24T00:17:45;13.20;99.90
11132;DHT22;5620;53.570;9.718;2023-04-24T00:20:12;13.10;1.00
11132;DHT22;5620;53.570;9.718;2023-04-24T00:22:39;13.10;1.00
11132;DHT22;5620;53.570;9.718;2023-04-24T00:25:06;13.10;1.00
11132;DHT22;5620;53.570;9.718;2023-04-24T00:27:32;13.10;1.00
11132;DHT22;5620;53.570;9.718;2023-04-24T00:29:59;13.00;1.00
11132;DHT22;5620;53.570;9.718;2023-04-24T00:32:26;13.10;1.00
11132;DHT22;5620;53.570;9.718;2023-04-24T00:34:53;13.00;1.00
11132;DHT22;5620;53.570;9.718;2023-04-24T00:37:20;13.00;1.00
11132;DHT22;5620;53.570;9.718;2023-04-24T00:39:48;12.80;1.00
11132;DHT22;5620;53.570;9.718;2023-04-24T00:42:13;12.70;11.60
11132;DHT22;5620;53.570;9.718;2023-04-24T00:44:41;12.60;90.70
11132;DHT22;5620;53.570;9.718;2023-04-24T00:47:09;12.50;99.90
11132;DHT22;5620;53.570;9.718;2023-04-24T00:49:38;12.40;99.90
11132;DHT22;5620;53.570;9.718;2023-04-24T00:52:05;12.30;99.90
11132;DHT22;5620;53.570;9.718;2023-04-24T00:54:32;12.20;1.00
11132;DHT22;5620;53.570;9.718;2023-04-24T00:57:01;12.10;1.00
11132;DHT22;5620;53.570;9.718;2023-04-24T00:59:26;12.00;1.00
11132;DHT22;5620;53.570;9.718;2023-04-24T01:01:55;12.00;1.00
11132;DHT22;5620;53.570;9.718;2023-04-24T01:04:20;11.90;1.00
11132;DHT22;5620;53.570;9.718;2023-04-24T01:06:50;11.90;1.00
11132;DHT22;5620;53.570;9.718;2023-04-24T01:09:23;11.80;54.20
11132;DHT22;5620;53.570;9.718;2023-04-24T01:11:50;11.80;99.90
11132;DHT22;5620;53.570;9.718;2023-04-24T01:14:18;11.70;99.90
11132;DHT22;5620;53.570;9.718;2023-04-24T01:16:45;11.70;99.90
11132;DHT22;5620;53.570;9.718;2023-04-24T01:19:16;11.70;99.90
11132;DHT22;5620;53.570;9.718;2023-04-24T01:21:44;11.70;1.00
11132;DHT22;5620;53.570;9.718;2023-04-24T01:24:13;11.70;1.00
11132;DHT22;5620;53.570;9.718;2023-04-24T01:26:41;11.80;1.00
11132;DHT22;5620;53.570;9.718;2023-04-24T01:29:08;12.00;1.00
11132;DHT22;5620;53.570;9.718;2023-04-24T01:31:35;12.10;1.00
11132;DHT22;5620;53.570;9.718;2023-04-24T01:34:04;12.20;1.00
11132;DHT22;5620;53.570;9.718;2023-04-24T01:36:32;12.30;1.00
11132;DHT22;5620;53.570;9.718;2023-04-24T01:39:00;12.40;1.00
11132;DHT22;5620;53.570;9.718;2023-04-24T01:41:30;12.50;1.00
11132;DHT22;5620;53.570;9.718;2023-04-24T01:43:57;12.50;1.00
11132;DHT22;5620;53.570;9.718;2023-04-24T01:46:24;12.50;99.90
11132;DHT22;5620;53.570;9.718;2023-04-24T01:48:51;12.50;99.90
11132;DHT22;5620;53.570;9.718;2023-04-24T01:51:19;12.50;1.00
11132;DHT22;5620;53.570;9.718;2023-04-24T01:53:46;12.50;1.00
11132;DHT22;5620;53.570;9.718;2023-04-24T01:56:12;12.60;1.00
11132;DHT22;5620;53.570;9.718;2023-04-24T01:58:39;12.50;1.00
11132;DHT22;5620;53.570;9.718;2023-04-24T02:01:08;12.50;1.00
11132;DHT22;5620;53.570;9.718;2023-04-24T02:03:44;12.50;99.90
11132;DHT22;5620;53.570;9.718;2023-04-24T02:06:12;12.40;99.90
11132;DHT22;5620;53.570;9.718;2023-04-24T02:08:37;12.20;99.90
11132;DHT22;5620;53.570;9.718;2023-04-24T02:11:04;12.10;99.90
11132;DHT22;5620;53.570;9.718;2023-04-24T02:13:29;12.00;1.00
11132;DHT22;5620;53.570;9.718;2023-04-24T02:15:58;11.90;1.00
11132;DHT22;5620;53.570;9.718;2023-04-24T02:18:25;11.60;1.00
11132;DHT22;5620;53.570;9.718;2023-04-24T02:20:52;11.70;1.00
11132;DHT22;5620;53.570;9.718;2023-04-24T02:23:17;11.70;1.00
11132;DHT22;5620;53.570;9.718;2023-04-24T02:25:45;11.60;1.00
11132;DHT22;5620;53.570;9.718;2023-04-24T02:28:10;11.50;1.00
11132;DHT22;5620;53.570;9.718;2023-04-24T02:30:40;11.40;1.00
11132;DHT22;5620;53.570;9.718;2023-04-24T02:33:05;11.30;1.00
11132;DHT22;5620;53.570;9.718;2023-04-24T02:35:34;11.30;1.00
11132;DHT22;5620;53.570;9.718;2023-04-24T02:38:01;11.20;1.00
11132;DHT22;5620;53.570;9.718;2023-04-24T02:40:29;11.20;1.00
11132;DHT22;5620;53.570;9.718;2023-04-24T02:42:57;11.20;1.00
11132;DHT22;5620;53.570;9.718;2023-04-24T02:45:26;11.10;1.00
11132;DHT22;5620;53.570;9.718;2023-04-24T02:47:52;11.10;8.50
11132;DHT22;5620;53.570;9.718;2023-04-24T02:50:18;11.10;1.00
11132;DHT22;5620;53.570;9.718;2023-04-24T02:52:46;11.00;36.50
11132;DHT22;5620;53.570;9.718;2023-04-24T02:55:12;10.90;64.50
11132;DHT22;5620;53.570;9.718;2023-04-24T02:57:40;10.90;6.00
11132;DHT22;5620;53.570;9.718;2023-04-24T03:00:06;10.90;29.20
11132;DHT22;5620;53.570;9.718;2023-04-24T03:02:33;10.90;37.00
11132;DHT22;5620;53.570;9.718;2023-04-24T03:04:58;10.80;65.50
11132;DHT22;5620;53.570;9.718;2023-04-24T03:07:27;10.80;98.30
11132;DHT22;5620;53.570;9.718;2023-04-24T03:09:54;10.80;99.90
11132;DHT22;5620;53.570;9.718;2023-04-24T03:12:20;10.80;99.90
11132;DHT22;5620;53.570;9.718;2023-04-24T03:14:48;10.80;99.90
11132;DHT22;5620;53.570;9.718;2023-04-24T03:17:14;10.80;99.90
11132;DHT22;5620;53.570;9.718;2023-04-24T03:19:41;10.80;88.40
11132;DHT22;5620;53.570;9.718;2023-04-24T03:22:07;10.80;99.90
11132;DHT22;5620;53.570;9.718;2023-04-24T03:24:35;10.70;99.90
11132;DHT22;5620;53.570;9.718;2023-04-24T03:27:02;10.70;99.90
11132;DHT22;5620;53.570;9.718;2023-04-24T03:29:27;10.70;99.90
11132;DHT22;5620;53.570;9.718;2023-04-24T03:31:53;10.70;99.90
11132;DHT22;5620;53.570;9.718;2023-04-24T03:34:20;10.70;99.90
11132;DHT22;5620;53.570;9.718;2023-04-24T03:36:46;10.60;99.90
11132;DHT22;5620;53.570;9.718;2023-04-24T03:39:15;10.60;99.90
11132;DHT22;5620;53.570;9.718;2023-04-24T03:41:46;10.60;99.90
11132;DHT22;5620;53.570;9.718;2023-04-24T03:44:12;10.60;1.00
11132;DHT22;5620;53.570;9.718;2023-04-24T03:46:39;10.60;1.00
11132;DHT22;5620;53.570;9.718;2023-04-24T03:49:06;10.70;1.00
11132;DHT22;5620;53.570;9.718;2023-04-24T03:51:32;10.80;1.00
11132;DHT22;5620;53.570;9.718;2023-04-24T03:53:59;10.80;1.00
11132;DHT22;5620;53.570;9.718;2023-04-24T03:56:27;10.90;1.00
11132;DHT22;5620;53.570;9.718;2023-04-24T03:58:55;11.00;99.90
11132;DHT22;5620;53.570;9.718;2023-04-24T04:01:22;11.10;99.90
11132;DHT22;5620;53.570;9.718;2023-04-24T04:03:49;11.10;99.90
11132;DHT22;5620;53.570;9.718;2023-04-24T04:06:14;11.20;99.90
11132;DHT22;5620;53.570;9.718;2023-04-24T04:08:41;11.10;1.00
11132;DHT22;5620;53.570;9.718;2023-04-24T04:11:07;11.10;1.00
11132;DHT22;5620;53.570;9.718;2023-04-24T04:13:34;11.10;1.00
11132;DHT22;5620;53.570;9.718;2023-04-24T04:16:00;11.00;1.00
11132;DHT22;5620;53.570;9.718;2023-04-24T04:18:26;11.00;1.00
11132;DHT22;5620;53.570;9.718;2023-04-24T04:20:56;11.00;1.00
11132;DHT22;5620;53.570;9.718;2023-04-24T04:23:23;11.10;5.80
11132;DHT22;5620;53.570;9.718;2023-04-24T04:25:48;11.20;1.00
11132;DHT22;5620;53.570;9.718;2023-04-24T04:28:14;11.40;1.00
11132;DHT22;5620;53.570;9.718;2023-04-24T04:30:41;11.50;99.90
11132;DHT22;5620;53.570;9.718;2023-04-24T04:33:09;11.60;99.90
11132;DHT22;5620;53.570;9.718;2023-04-24T04:35:36;11.70;62.90
11132;DHT22;5620;53.570;9.718;2023-04-24T04:38:02;11.80;1.00
11132;DHT22;5620;53.570;9.718;2023-04-24T04:40:30;11.90;1.00
11132;DHT22;5620;53.570;9.718;2023-04-24T04:42:56;12.00;1.00
11132;DHT22;5620;53.570;9.718;2023-04-24T04:45:23;12.20;99.90
11132;DHT22;5620;53.570;9.718;2023-04-24T04:47:50;12.30;93.80
11132;DHT22;5620;53.570;9.718;2023-04-24T04:50:16;12.40;1.00
11132;DHT22;5620;53.570;9.718;2023-04-24T04:52:43;12.40;1.00
11132;DHT22;5620;53.570;9.718;2023-04-24T04:55:10;12.40;99.90
11132;DHT22;5620;53.570;9.718;2023-04-24T04:57:39;12.50;99.90
11132;DHT22;5620;53.570;9.718;2023-04-24T05:00:07;12.50;44.50
11132;DHT22;5620;53.570;9.718;2023-04-24T05:02:33;12.50;1.00
11132;DHT22;5620;53.570;9.718;2023-04-24T05:04:59;12.60;1.00
11132;DHT22;5620;53.570;9.718;2023-04-24T05:07:28;12.70;1.00
11132;DHT22;5620;53.570;9.718;2023-04-24T05:09:53;12.90;1.00
11132;DHT22;5620;53.570;9.718;2023-04-24T05:12:20;13.00;99.90
11132;DHT22;5620;53.570;9.718;2023-04-24T05:14:48;13.00;99.90
11132;DHT22;5620;53.570;9.718;2023-04-24T05:17:15;13.20;99.90
11132;DHT22;5620;53.570;9.718;2023-04-24T05:19:42;13.30;99.90
11132;DHT22;5620;53.570;9.718;2023-04-24T05:22:09;13.40;99.90
11132;DHT22;5620;53.570;9.718;2023-04-24T05:24:36;13.50;93.80
11132;DHT22;5620;53.570;9.718;2023-04-24T05:27:03;13.60;72.90
11132;DHT22;5620;53.570;9.718;2023-04-24T05:29:33;13.60;52.10
11132;DHT22;5620;53.570;9.718;2023-04-24T05:32:20;13.60;10.10
11132;DHT22;5620;53.570;9.718;2023-04-24T05:34:46;13.70;1.00
11132;DHT22;5620;53.570;9.718;2023-04-24T05:37:16;13.70;1.00
11132;DHT22;5620;53.570;9.718;2023-04-24T05:39:45;13.90;1.00
11132;DHT22;5620;53.570;9.718;2023-04-24T05:42:13;14.00;1.00
11132;DHT22;5620;53.570;9.718;2023-04-24T05:44:38;14.10;1.00
11132;DHT22;5620;53.570;9.718;2023-04-24T05:47:05;14.20;1.00
11132;DHT22;5620;53.570;9.718;2023-04-24T05:49:31;14.40;1.00
11132;DHT22;5620;53.570;9.718;2023-04-24T05:51:59;14.60;1.00
11132;DHT22;5620;53.570;9.718;2023-04-24T05:54:24;14.80;1.00
11132;DHT22;5620;53.570;9.718;2023-04-24T05:56:51;14.90;1.00
11132;DHT22;5620;53.570;9.718;2023-04-24T05:59:17;14.90;99.90
11132;DHT22;5620;53.570;9.718;2023-04-24T06:01:43;15.00;99.90
11132;DHT22;5620;53.570;9.718;2023-04-24T06:04:10;15.00;99.90
11132;DHT22;5620;53.570;9.718;2023-04-24T06:06:37;15.20;99.90
11132;DHT22;5620;53.570;9.718;2023-04-24T06:09:08;15.50;99.90
11132;DHT22;5620;53.570;9.718;2023-04-24T06:11:36;15.60;99.90
11132;DHT22;5620;53.570;9.718;2023-04-24T06:14:03;15.50;99.90
11132;DHT22;5620;53.570;9.718;2023-04-24T06:16:29;15.50;99.90
11132;DHT22;5620;53.570;9.718;2023-04-24T06:18:57;15.50;99.90
11132;DHT22;5620;53.570;9.718;2023-04-24T06:21:23;15.50;99.90
11132;DHT22;5620;53.570;9.718;2023-04-24T06:23:49;15.50;99.90
11132;DHT22;5620;53.570;9.718;2023-04-24T06:26:14;15.40;99.90
11132;DHT22;5620;53.570;9.718;2023-04-24T06:28:40;15.40;99.90
11132;DHT22;5620;53.570;9.718;2023-04-24T06:31:07;15.80;99.90
11132;DHT22;5620;53.570;9.718;2023-04-24T06:33:34;16.10;99.90
11132;DHT22;5620;53.570;9.718;2023-04-24T06:36:02;16.30;99.90
11132;DHT22;5620;53.570;9.718;2023-04-24T06:38:30;16.40;99.90
11132;DHT22;5620;53.570;9.718;2023-04-24T06:40:58;16.30;99.90
11132;DHT22;5620;53.570;9.718;2023-04-24T06:43:26;16.20;99.90
11132;DHT22;5620;53.570;9.718;2023-04-24T06:45:51;16.30;99.90
11132;DHT22;5620;53.570;9.718;2023-04-24T06:48:17;16.30;99.90
11132;DHT22;5620;53.570;9.718;2023-04-24T06:50:42;16.40;99.90
11132;DHT22;5620;53.570;9.718;2023-04-24T06:53:14;16.50;99.90
11132;DHT22;5620;53.570;9.718;2023-04-24T06:55:41;16.60;99.90
11132;DHT22;5620;53.570;9.718;2023-04-24T06:58:08;16.70;99.90
11132;DHT22;5620;53.570;9.718;2023-04-24T07:00:34;16.80;99.90
11132;DHT22;5620;53.570;9.718;2023-04-24T07:03:02;16.60;98.60
11132;DHT22;5620;53.570;9.718;2023-04-24T07:05:28;16.20;93.10
11132;DHT22;5620;53.570;9.718;2023-04-24T07:07:53;15.90;45.70
11132;DHT22;5620;53.570;9.718;2023-04-24T07:10:21;15.80;39.70
11132;DHT22;5620;53.570;9.718;2023-04-24T07:12:52;15.70;33.10
11132;DHT22;5620;53.570;9.718;2023-04-24T07:15:18;15.40;31.10
11132;DHT22;5620;53.570;9.718;2023-04-24T07:17:46;15.20;33.60
11132;DHT22;5620;53.570;9.718;2023-04-24T07:20:13;15.10;38.00
11132;DHT22;5620;53.570;9.718;2023-04-24T07:22:40;15.20;39.50
11132;DHT22;5620;53.570;9.718;2023-04-24T07:25:06;15.40;36.10
11132;DHT22;5620;53.570;9.718;2023-04-24T07:27:34;15.50;33.50
11132;DHT22;5620;53.570;9.718;2023-04-24T07:30:00;15.70;29.20
11132;DHT22;5620;53.570;9.718;2023-04-24T07:32:27;15.90;26.50
11132;DHT22;5620;53.570;9.718;2023-04-24T07:34:53;16.10;20.70
11132;DHT22;5620;53.570;9.718;2023-04-24T07:37:22;16.20;15.70
11132;DHT22;5620;53.570;9.718;2023-04-24T07:39:47;16.40;13.10
11132;DHT22;5620;53.570;9.718;2023-04-24T07:42:13;16.30;5.10
11132;DHT22;5620;53.570;9.718;2023-04-24T07:44:40;16.20;4.30
11132;DHT22;5620;53.570;9.718;2023-04-24T07:47:07;16.00;2.20
11132;DHT22;5620;53.570;9.718;2023-04-24T07:49:33;15.70;1.00
11132;DHT22;5620;53.570;9.718;2023-04-24T07:52:00;15.60;4.40
11132;DHT22;5620;53.570;9.718;2023-04-24T07:54:27;15.50;4.40
11132;DHT22;5620;53.570;9.718;2023-04-24T07:56:53;15.40;6.90
11132;DHT22;5620;53.570;9.718;2023-04-24T07:59:19;15.50;6.20
11132;DHT22;5620;53.570;9.718;2023-04-24T08:01:46;15.40;4.00
11132;DHT22;5620;53.570;9.718;2023-04-24T08:04:13;15.30;3.90
11132;DHT22;5620;53.570;9.718;2023-04-24T08:06:38;15.20;5.30
11132;DHT22;5620;53.570;9.718;2023-04-24T08:09:06;15.40;3.40
11132;DHT22;5620;53.570;9.718;2023-04-24T08:11:32;15.80;2.20
11132;DHT22;5620;53.570;9.718;2023-04-24T08:13:59;16.10;1.00
11132;DHT22;5620;53.570;9.718;2023-04-24T08:16:27;16.20;1.00
11132;DHT22;5620;53.570;9.718;2023-04-24T08:18:53;16.10;1.00
11132;DHT22;5620;53.570;9.718;2023-04-24T08:21:18;15.80;1.00
11132;DHT22;5620;53.570;9.718;2023-04-24T08:23:47;15.70;1.00
11132;DHT22;5620;53.570;9.718;2023-04-24T08:26:13;15.70;1.00
11132;DHT22;5620;53.570;9.718;2023-04-24T08:28:40;15.70;1.00
11132;DHT22;5620;53.570;9.718;2023-04-24T08:31:05;15.70;1.00
11132;DHT22;5620;53.570;9.718;2023-04-24T08:33:32;15.50;1.00
11132;DHT22;5620;53.570;9.718;2023-04-24T08:35:58;15.50;1.00
11132;DHT22;5620;53.570;9.718;2023-04-24T08:38:24;15.40;1.00
11132;DHT22;5620;53.570;9.718;2023-04-24T08:40:50;15.30;1.00
11132;DHT22;5620;53.570;9.718;2023-04-24T08:43:16;15.30;1.00
11132;DHT22;5620;53.570;9.718;2023-04-24T08:45:44;15.40;1.00
11132;DHT22;5620;53.570;9.718;2023-04-24T08:48:11;15.30;1.00
11132;DHT22;5620;53.570;9.718;2023-04-24T08:50:39;15.40;1.00
11132;DHT22;5620;53.570;9.718;2023-04-24T08:53:08;15.30;1.00
11132;DHT22;5620;53.570;9.718;2023-04-24T08:55:37;15.30;1.00
11132;DHT22;5620;53.570;9.718;2023-04-24T08:58:05;15.40;1.00
11132;DHT22;5620;53.570;9.718;2023-04-24T09:00:31;15.50;1.00
11132;DHT22;5620;53.570;9.718;2023-04-24T09:03:00;15.70;1.00
11132;DHT22;5620;53.570;9.718;2023-04-24T09:05:27;15.80;1.00
11132;DHT22;5620;53.570;9.718;2023-04-24T09:07:55;15.80;1.00
11132;DHT22;5620;53.570;9.718;2023-04-24T09:10:22;15.70;1.00
11132;DHT22;5620;53.570;9.718;2023-04-24T09:12:50;15.70;1.00
11132;DHT22;5620;53.570;9.718;2023-04-24T09:15:15;15.70;1.00
11132;DHT22;5620;53.570;9.718;2023-04-24T09:17:43;16.00;1.00
11132;DHT22;5620;53.570;9.718;2023-04-24T09:20:09;16.50;1.00
11132;DHT22;5620;53.570;9.718;2023-04-24T09:22:37;16.70;1.00
11132;DHT22;5620;53.570;9.718;2023-04-24T09:25:07;16.90;1.00
11132;DHT22;5620;53.570;9.718;2023-04-24T09:27:35;16.90;1.00
11132;DHT22;5620;53.570;9.718;2023-04-24T09:30:02;16.50;1.00
11132;DHT22;5620;53.570;9.718;2023-04-24T09:32:30;16.20;1.00
11132;DHT22;5620;53.570;9.718;2023-04-24T09:37:52;16.10;1.00
11132;DHT22;5620;53.570;9.718;2023-04-24T09:40:19;16.20;1.00
11132;DHT22;5620;53.570;9.718;2023-04-24T09:42:54;16.30;1.00
11132;DHT22;5620;53.570;9.718;2023-04-24T09:45:43;16.40;1.00
11132;DHT22;5620;53.570;9.718;2023-04-24T09:48:12;16.30;1.00
11132;DHT22;5620;53.570;9.718;2023-04-24T09:50:37;15.90;1.00
11132;DHT22;5620;53.570;9.718;2023-04-24T09:53:05;15.70;1.00
11132;DHT22;5620;53.570;9.718;2023-04-24T09:55:31;15.80;1.00
11132;DHT22;5620;53.570;9.718;2023-04-24T09:58:00;16.40;1.00
11132;DHT22;5620;53.570;9.718;2023-04-24T10:00:29;17.10;1.00
11132;DHT22;5620;53.570;9.718;2023-04-24T10:03:03;17.80;1.00
11132;DHT22;5620;53.570;9.718;2023-04-24T10:05:36;18.00;1.00
11132;DHT22;5620;53.570;9.718;2023-04-24T10:08:06;18.00;1.00
11132;DHT22;5620;53.570;9.718;2023-04-24T10:10:39;17.60;1.00
11132;DHT22;5620;53.570;9.718;2023-04-24T10:13:07;17.50;1.00
11132;DHT22;5620;53.570;9.718;2023-04-24T10:15:38;17.70;1.00
11132;DHT22;5620;53.570;9.718;2023-04-24T10:18:07;18.40;1.00
11132;DHT22;5620;53.570;9.718;2023-04-24T10:20:35;19.00;1.00
11132;DHT22;5620;53.570;9.718;2023-04-24T10:23:02;19.00;1.00
11132;DHT22;5620;53.570;9.718;2023-04-24T10:25:34;18.50;1.00
11132;DHT22;5620;53.570;9.718;2023-04-24T10:28:02;17.90;1.00
11132;DHT22;5620;53.570;9.718;2023-04-24T10:30:30;17.60;1.00
11132;DHT22;5620;53.570;9.718;2023-04-24T10:32:57;17.60;1.00
11132;DHT22;5620;53.570;9.718;2023-04-24T10:35:23;17.70;1.00
11132;DHT22;5620;53.570;9.718;2023-04-24T10:37:54;17.50;1.00
11132;DHT22;5620;53.570;9.718;2023-04-24T10:40:27;17.10;1.00
11132;DHT22;5620;53.570;9.718;2023-04-24T10:42:57;16.70;1.00
11132;DHT22;5620;53.570;9.718;2023-04-24T10:45:24;16.40;1.00
11132;DHT22;5620;53.570;9.718;2023-04-24T10:48:04;16.00;1.00
11132;DHT22;5620;53.570;9.718;2023-04-24T10:53:21;15.40;1.00
11132;DHT22;5620;53.570;9.718;2023-04-24T10:56:15;15.10;1.00
11132;DHT22;5620;53.570;9.718;2023-04-24T10:58:45;15.10;1.00
11132;DHT22;5620;53.570;9.718;2023-04-24T11:01:31;14.90;1.00
11132;DHT22;5620;53.570;9.718;2023-04-24T11:04:03;14.90;1.00
11132;DHT22;5620;53.570;9.718;2023-04-24T11:06:35;15.10;1.00
11132;DHT22;5620;53.570;9.718;2023-04-24T11:09:08;15.30;1.00
11132;DHT22;5620;53.570;9.718;2023-04-24T11:11:35;15.30;1.00
11132;DHT22;5620;53.570;9.718;2023-04-24T11:14:13;15.40;1.00
11132;DHT22;5620;53.570;9.718;2023-04-24T11:16:58;15.80;1.00
11132;DHT22;5620;53.570;9.718;2023-04-24T11:19:42;16.50;1.00
11132;DHT22;5620;53.570;9.718;2023-04-24T11:22:22;17.00;1.00
11132;DHT22;5620;53.570;9.718;2023-04-24T11:24:59;17.30;1.00
11132;DHT22;5620;53.570;9.718;2023-04-24T11:27:40;17.40;1.00
11132;DHT22;5620;53.570;9.718;2023-04-24T11:30:08;17.30;1.00
11132;DHT22;5620;53.570;9.718;2023-04-24T11:32:53;17.20;1.00
11132;DHT22;5620;53.570;9.718;2023-04-24T11:35:39;17.20;1.00
11132;DHT22;5620;53.570;9.718;2023-04-24T11:38:09;17.20;1.00
11132;DHT22;5620;53.570;9.718;2023-04-24T11:40:37;17.30;1.00
11132;DHT22;5620;53.570;9.718;2023-04-24T11:43:04;17.60;1.00
11132;DHT22;5620;53.570;9.718;2023-04-24T11:45:30;17.60;1.00
11132;DHT22;5620;53.570;9.718;2023-04-24T11:47:57;17.30;1.00
11132;DHT22;5620;53.570;9.718;2023-04-24T11:50:25;17.10;1.00
11132;DHT22;5620;53.570;9.718;2023-04-24T11:52:51;16.80;1.00
11132;DHT22;5620;53.570;9.718;2023-04-24T11:57:53;16.70;1.00
11132;DHT22;5620;53.570;9.718;2023-04-24T12:00:20;17.00;1.00
11132;DHT22;5620;53.570;9.718;2023-04-24T12:02:49;17.10;1.00
11132;DHT22;5620;53.570;9.718;2023-04-24T12:05:27;17.00;1.00
11132;DHT22;5620;53.570;9.718;2023-04-24T12:07:54;17.20;1.00
11132;DHT22;5620;53.570;9.718;2023-04-24T12:10:21;17.70;1.00
11132;DHT22;5620;53.570;9.718;2023-04-24T12:12:47;18.10;1.00
11132;DHT22;5620;53.570;9.718;2023-04-24T12:15:12;18.20;1.00
11132;DHT22;5620;53.570;9.718;2023-04-24T12:17:41;18.40;1.00
11132;DHT22;5620;53.570;9.718;2023-04-24T12:20:08;18.20;1.00
11132;DHT22;5620;53.570;9.718;2023-04-24T12:22:55;17.90;1.00
11132;DHT22;5620;53.570;9.718;2023-04-24T12:25:28;17.50;1.00
11132;DHT22;5620;53.570;9.718;2023-04-24T12:28:16;17.20;1.00
11132;DHT22;5620;53.570;9.718;2023-04-24T12:30:59;17.00;1.00
11132;DHT22;5620;53.570;9.718;2023-04-24T12:33:26;16.70;1.00
11132;DHT22;5620;53.570;9.718;2023-04-24T12:35:54;16.60;1.00
11132;DHT22;5620;53.570;9.718;2023-04-24T12:38:28;16.50;1.00
11132;DHT22;5620;53.570;9.718;2023-04-24T12:41:12;16.30;1.00
11132;DHT22;5620;53.570;9.718;2023-04-24T12:43:38;16.00;1.00
11132;DHT22;5620;53.570;9.718;2023-04-24T12:46:05;15.60;1.00
11132;DHT22;5620;53.570;9.718;2023-04-24T12:48:34;15.30;1.00
11132;DHT22;5620;53.570;9.718;2023-04-24T12:51:02;14.90;1.00
11132;DHT22;5620;53.570;9.718;2023-04-24T12:53:28;14.70;1.00
11132;DHT22;5620;53.570;9.718;2023-04-24T12:55:56;14.50;1.00
11132;DHT22;5620;53.570;9.718;2023-04-24T12:58:24;14.30;1.00
11132;DHT22;5620;53.570;9.718;2023-04-24T13:00:51;14.00;1.00
11132;DHT22;5620;53.570;9.718;2023-04-24T13:03:18;13.50;1.00
11132;DHT22;5620;53.570;9.718;2023-04-24T13:05:46;13.10;1.00
11132;DHT22;5620;53.570;9.718;2023-04-24T13:08:13;12.70;1.00
11132;DHT22;5620;53.570;9.718;2023-04-24T13:10:40;12.30;7.50
11132;DHT22;5620;53.570;9.718;2023-04-24T13:13:08;12.10;24.50
11132;DHT22;5620;53.570;9.718;2023-04-24T13:15:33;12.20;43.70
11132;DHT22;5620;53.570;9.718;2023-04-24T13:18:01;12.30;67.10
11132;DHT22;5620;53.570;9.718;2023-04-24T13:20:28;12.30;78.00
11132;DHT22;5620;53.570;9.718;2023-04-24T13:22:53;12.40;91.40
11132;DHT22;5620;53.570;9.718;2023-04-24T13:25:22;12.40;97.00
11132;DHT22;5620;53.570;9.718;2023-04-24T13:27:48;12.50;99.90
11132;DHT22;5620;53.570;9.718;2023-04-24T13:30:15;12.60;99.90
11132;DHT22;5620;53.570;9.718;2023-04-24T13:32:40;12.80;99.90
11132;DHT22;5620;53.570;9.718;2023-04-24T13:35:07;13.10;99.90
11132;DHT22;5620;53.570;9.718;2023-04-24T13:37:33;13.20;99.90
11132;DHT22;5620;53.570;9.718;2023-04-24T13:39:59;13.30;99.90
11132;DHT22;5620;53.570;9.718;2023-04-24T13:42:26;13.50;99.90
11132;DHT22;5620;53.570;9.718;2023-04-24T13:44:54;13.60;99.90
11132;DHT22;5620;53.570;9.718;2023-04-24T13:47:21;13.80;99.90
11132;DHT22;5620;53.570;9.718;2023-04-24T13:49:47;14.20;99.90
11132;DHT22;5620;53.570;9.718;2023-04-24T13:52:13;14.40;99.90
11132;DHT22;5620;53.570;9.718;2023-04-24T13:54:40;14.50;99.90
11132;DHT22;5620;53.570;9.718;2023-04-24T13:57:08;14.40;99.90
11132;DHT22;5620;53.570;9.718;2023-04-24T13:59:36;14.20;99.90
11132;DHT22;5620;53.570;9.718;2023-04-24T14:02:03;14.10;99.90
11132;DHT22;5620;53.570;9.718;2023-04-24T14:04:31;14.10;99.90
11132;DHT22;5620;53.570;9.718;2023-04-24T14:06:59;14.10;99.90
11132;DHT22;5620;53.570;9.718;2023-04-24T14:09:26;13.90;99.90
11132;DHT22;5620;53.570;9.718;2023-04-24T14:11:52;13.40;99.90
11132;DHT22;5620;53.570;9.718;2023-04-24T14:14:17;12.60;99.90
11132;DHT22;5620;53.570;9.718;2023-04-24T14:16:43;11.90;99.90
11132;DHT22;5620;53.570;9.718;2023-04-24T14:19:11;11.70;99.90
11132;DHT22;5620;53.570;9.718;2023-04-24T14:21:36;11.60;1.00
11132;DHT22;5620;53.570;9.718;2023-04-24T14:24:05;11.50;99.30
11132;DHT22;5620;53.570;9.718;2023-04-24T14:26:30;11.60;99.90
11132;DHT22;5620;53.570;9.718;2023-04-24T14:28:56;11.70;99.90
11132;DHT22;5620;53.570;9.718;2023-04-24T14:31:25;11.70;99.90
11132;DHT22;5620;53.570;9.718;2023-04-24T14:33:52;11.60;1.00
11132;DHT22;5620;53.570;9.718;2023-04-24T14:36:19;11.50;1.00
11132;DHT22;5620;53.570;9.718;2023-04-24T14:38:44;11.60;1.00
11132;DHT22;5620;53.570;9.718;2023-04-24T14:41:11;11.50;23.80
11132;DHT22;5620;53.570;9.718;2023-04-24T14:43:36;11.50;99.40
11132;DHT22;5620;53.570;9.718;2023-04-24T14:46:03;11.50;99.90
11132;DHT22;5620;53.570;9.718;2023-04-24T14:48:32;11.50;99.90
11132;DHT22;5620;53.570;9.718;2023-04-24T14:50:59;11.40;1.00
11132;DHT22;5620;53.570;9.718;2023-04-24T14:53:26;11.20;6.10
11132;DHT22;5620;53.570;9.718;2023-04-24T14:55:51;11.00;1.00
11132;DHT22;5620;53.570;9.718;2023-04-24T14:58:17;10.80;1.00
11132;DHT22;5620;53.570;9.718;2023-04-24T15:00:45;10.60;1.00
11132;DHT22;5620;53.570;9.718;2023-04-24T15:03:12;10.40;1.00
11132;DHT22;5620;53.570;9.718;2023-04-24T15:05:37;10.20;1.00
11132;DHT22;5620;53.570;9.718;2023-04-24T15:08:03;10.10;99.90
11132;DHT22;5620;53.570;9.718;2023-04-24T15:10:31;10.10;99.90
11132;DHT22;5620;53.570;9.718;2023-04-24T15:12:58;10.10;89.70
11132;DHT22;5620;53.570;9.718;2023-04-24T15:15:25;10.10;1.00
11132;DHT22;5620;53.570;9.718;2023-04-24T15:17:53;10.10;44.30
11132;DHT22;5620;53.570;9.718;2023-04-24T15:20:19;10.10;99.90
11132;DHT22;5620;53.570;9.718;2023-04-24T15:22:49;10.10;99.90
11132;DHT22;5620;53.570;9.718;2023-04-24T15:25:15;10.00;1.00
11132;DHT22;5620;53.570;9.718;2023-04-24T15:28:01;9.90;1.00
11132;DHT22;5620;53.570;9.718;2023-04-24T15:30:27;9.80;99.90
11132;DHT22;5620;53.570;9.718;2023-04-24T15:32:55;9.70;1.00
11132;DHT22;5620;53.570;9.718;2023-04-24T15:35:21;9.60;1.00
11132;DHT22;5620;53.570;9.718;2023-04-24T15:37:47;9.50;1.00
11132;DHT22;5620;53.570;9.718;2023-04-24T15:40:15;9.50;73.90
11132;DHT22;5620;53.570;9.718;2023-04-24T15:42:42;9.40;99.90
11132;DHT22;5620;53.570;9.718;2023-04-24T15:45:08;9.40;99.90
11132;DHT22;5620;53.570;9.718;2023-04-24T15:47:35;9.30;99.90
11132;DHT22;5620;53.570;9.718;2023-04-24T15:50:02;9.20;99.90
11132;DHT22;5620;53.570;9.718;2023-04-24T15:52:30;9.00;99.90
11132;DHT22;5620;53.570;9.718;2023-04-24T15:54:55;9.00;99.90
11132;DHT22;5620;53.570;9.718;2023-04-24T15:57:21;8.90;99.90
11132;DHT22;5620;53.570;9.718;2023-04-24T15:59:49;8.80;99.90
11132;DHT22;5620;53.570;9.718;2023-04-24T16:02:16;8.70;99.90
11132;DHT22;5620;53.570;9.718;2023-04-24T16:04:44;8.70;99.90
11132;DHT22;5620;53.570;9.718;2023-04-24T16:07:09;8.70;99.90